Time;durP1;ratioP1;P1;durP2;ratioP2;P2;SDS_P1;SDS_P2;PMS_P1;PMS_P2;Temp;Humidity;BMP_temperature;BMP_pressure;BME280_temperature;BME280_humidity;BME280_pressure;Samples;Min_cycle;Max_cycle;Signal;HPM_P1;HPM_P2
2023/08/17 00:00:25;;;;;;;5.57;3.88;;;;;;;;;;5012710;28;20095;-83
2023/08/17 00:02:51;;;;;;;6.57;3.83;;;;;;;;;;4980695;28;20092;-85
2023/08/17 00:05:17;;;;;;;8.27;4.20;;;;;;;;;;4980633;28;20037;-87
2023/08/17 00:07:42;;;;;;;8.25;5.00;;;16.20;1.00;;;;;;4996719;28;20593;-86
2023/08/17 00:10:09;;;;;;;7.03;4.15;;;;;;;;;;4980494;28;20125;-85
2023/08/17 00:12:35;;;;;;;9.00;4.72;;;;;;;;;;4996539;28;20450;-88
2023/08/17 00:15:01;;;;;;;7.15;4.00;;;;;;;;;;4996340;28;20388;-81
2023/08/17 00:17:27;;;;;;;4.78;3.78;;;;;;;;;;4980524;28;20562;-89
2023/08/17 00:19:53;;;;;;;8.77;3.95;;;;;;;;;;4996254;28;20088;-86
2023/08/17 00:22:19;;;;;;;6.00;3.60;;;;;;;;;;5011833;28;20049;-84
2023/08/17 00:24:45;;;;;;;4.55;3.28;;;;;;;;;;4979711;28;20049;-88
2023/08/17 00:27:11;;;;;;;5.57;3.95;;;;;;;;;;4996082;28;20034;-84
2023/08/17 00:29:37;;;;;;;7.65;3.30;;;;;;;;;;4980070;28;20046;-92
2023/08/17 00:32:04;;;;;;;5.93;4.13;;;16.10;1.00;;;;;;5012303;28;20076;-84
2023/08/17 00:34:30;;;;;;;4.05;3.60;;;;;;;;;;5012113;28;20054;-86
2023/08/17 00:36:56;;;;;;;4.13;3.42;;;;;;;;;;4995657;28;20053;-83
2023/08/17 00:39:22;;;;;;;13.30;4.68;;;;;;;;;;4995905;28;20054;-85
2023/08/17 00:41:48;;;;;;;6.53;3.70;;;;;;;;;;4995489;28;20065;-84
2023/08/17 00:44:14;;;;;;;7.65;3.42;;;;;;;;;;4995302;28;20050;-84
2023/08/17 00:46:40;;;;;;;9.10;4.68;;;;;;;;;;4995157;28;20086;-83
2023/08/17 00:49:07;;;;;;;5.78;2.95;;;;;;;;;;4995470;28;20046;-87
2023/08/17 00:51:33;;;;;;;9.50;3.88;;;15.80;1.00;;;;;;4979626;28;20561;-83
2023/08/17 00:54:00;;;;;;;3.63;3.15;;;;;;;;;;5011238;28;20430;-82
2023/08/17 00:56:29;;;;;;;4.53;3.45;;;;;;;;;;5011443;28;20041;-85
2023/08/17 00:58:56;;;;;;;8.38;2.92;;;;;;;;;;4995181;28;20050;-83
2023/08/17 01:01:22;;;;;;;5.80;3.58;;;;;;;;;;5011530;28;20046;-83
2023/08/17 01:03:48;;;;;;;8.10;3.70;;;;;;;;;;5010737;28;20103;-84
2023/08/17 01:06:14;;;;;;;9.40;3.55;;;;;;;;;;4995160;28;20125;-83
2023/08/17 01:08:41;;;;;;;4.95;3.40;;;;;;;;;;5010869;28;20096;-84
2023/08/17 01:11:10;;;;;;;8.32;3.40;;;;;;;;;;4978568;28;20572;-84
2023/08/17 01:13:48;;;;;;;4.18;3.15;;;15.60;1.00;;;;;;5011526;28;20149;-84
2023/08/17 01:16:24;;;;;;;10.30;3.22;;;15.60;1.00;;;;;;4994765;28;20073;-83
2023/08/17 01:18:50;;;;;;;4.53;3.28;;;;;;;;;;4994554;28;20050;-83
2023/08/17 01:21:18;;;;;;;7.95;3.58;;;15.50;1.00;;;;;;5010800;28;20042;-84
2023/08/17 01:23:45;;;;;;;9.20;4.00;;;;;;;;;;4994162;28;20053;-83
2023/08/17 01:26:15;;;;;;;4.07;3.50;;;;;;;;;;4994723;28;20046;-84
2023/08/17 01:28:45;;;;;;;6.07;3.38;;;15.60;1.00;;;;;;4994829;28;20133;-83
2023/08/17 01:31:14;;;;;;;6.72;4.45;;;;;;;;;;4994967;28;20202;-83
2023/08/17 01:33:44;;;;;;;5.18;3.50;;;15.30;1.00;;;;;;4996489;28;20046;-82
2023/08/17 01:36:24;;;;;;;9.27;3.45;;;15.30;1.00;;;;;;5015041;28;20042;-82
2023/08/17 01:38:52;;;;;;;5.45;2.95;;;15.40;1.00;;;;;;5014983;28;20049;-84
2023/08/17 01:41:20;;;;;;;7.00;3.75;;;15.50;1.00;;;;;;4982399;28;20057;-82
2023/08/17 01:43:47;;;;;;;7.38;3.28;;;;;;;;;;5014567;28;20136;-87
2023/08/17 01:46:17;;;;;;;4.43;3.80;;;;;;;;;;4982176;28;20042;-81
2023/08/17 01:48:43;;;;;;;5.28;3.42;;;;;;;;;;5014512;28;20103;-81
2023/08/17 01:51:10;;;;;;;9.55;3.78;;;15.30;1.00;;;;;;4998607;28;20434;-81
2023/08/17 01:53:36;;;;;;;9.93;3.63;;;;;;;;;;4998105;28;20480;-82
2023/08/17 01:56:02;;;;;;;4.00;3.60;;;;;;;;;;4998413;28;20133;-83
2023/08/17 01:58:28;;;;;;;4.45;3.20;;;;;;;;;;5014253;28;20041;-83
2023/08/17 02:00:54;;;;;;;4.75;3.65;;;;;;;;;;4998240;28;20077;-83
2023/08/17 02:03:20;;;;;;;4.72;3.20;;;;;;;;;;5013982;28;20048;-84
2023/08/17 02:05:47;;;;;;;4.93;3.90;;;14.90;1.00;;;;;;4997960;28;20042;-85
2023/08/17 02:08:13;;;;;;;5.85;3.60;;;;;;;;;;5014269;28;20060;-85
2023/08/17 02:10:39;;;;;;;4.75;3.40;;;;;;;;;;4997864;28;20095;-84
2023/08/17 02:13:05;;;;;;;7.18;3.63;;;;;;;;;;4981727;28;20046;-84
2023/08/17 02:15:31;;;;;;;11.30;3.60;;;;;;;;;;4997679;28;20180;-85
2023/08/17 02:18:01;;;;;;;5.47;4.30;;;14.90;1.00;;;;;;4981973;28;20211;-82
2023/08/17 02:20:27;;;;;;;5.57;4.75;;;;;;;;;;5014332;28;20124;-84
2023/08/17 02:22:53;;;;;;;12.20;4.10;;;;;;;;;;5013951;28;20407;-82
2023/08/17 02:25:19;;;;;;;7.57;4.13;;;;;;;;;;4981752;28;20403;-85
2023/08/17 02:27:45;;;;;;;6.35;3.25;;;;;;;;;;5014188;28;20122;-83
2023/08/17 02:30:11;;;;;;;3.25;2.95;;;;;;;;;;4998257;28;20049;-83
2023/08/17 02:32:37;;;;;;;6.47;3.50;;;;;;;;;;5014102;28;20507;-84
2023/08/17 02:35:03;;;;;;;5.28;3.67;;;;;;;;;;4981456;28;20100;-86
2023/08/17 02:37:29;;;;;;;5.63;4.15;;;;;;;;;;5014265;28;20486;-83
2023/08/17 02:39:56;;;;;;;9.93;4.28;;;;;;;;;;4998188;28;20061;-86
2023/08/17 02:42:22;;;;;;;5.82;3.60;;;;;;;;;;4998008;28;20042;-86
2023/08/17 02:44:48;;;;;;;6.18;3.80;;;;;;;;;;4997089;28;20124;-86
2023/08/17 02:47:14;;;;;;;10.50;4.60;;;;;;;;;;4997276;28;20038;-84
2023/08/17 02:49:40;;;;;;;6.63;3.53;;;;;;;;;;4997345;28;20528;-83
2023/08/17 02:52:06;;;;;;;6.35;3.80;;;;;;;;;;5013922;28;20046;-83
2023/08/17 02:54:32;;;;;;;8.48;4.18;;;;;;;;;;4997752;28;20487;-84
2023/08/17 02:57:00;;;;;;;10.93;4.57;;;;;;;;;;5014061;28;20085;-83
2023/08/17 02:59:26;;;;;;;10.35;3.92;;;;;;;;;;4997428;28;20073;-84
2023/08/17 03:01:53;;;;;;;5.15;3.78;;;15.10;1.00;;;;;;5013648;28;20054;-86
2023/08/17 03:04:19;;;;;;;6.35;3.90;;;;;;;;;;4997500;28;20120;-84
2023/08/17 03:06:46;;;;;;;10.05;3.70;;;;;;;;;;4997146;28;20103;-85
2023/08/17 03:09:12;;;;;;;8.25;3.97;;;;;;;;;;4997410;28;20045;-87
2023/08/17 03:11:38;;;;;;;10.80;4.50;;;;;;;;;;4997524;28;20038;-86
2023/08/17 03:14:04;;;;;;;7.50;4.55;;;;;;;;;;4997600;28;20041;-88
2023/08/17 03:16:30;;;;;;;8.00;4.57;;;;;;;;;;4997537;28;20078;-83
2023/08/17 03:18:56;;;;;;;5.88;3.22;;;;;;;;;;4997895;28;20160;-84
2023/08/17 03:21:23;;;;;;;6.03;3.53;;;;;;;;;;5013728;28;20050;-84
2023/08/17 03:23:49;;;;;;;5.53;3.95;;;;;;;;;;4997523;28;20046;-83
2023/08/17 03:26:15;;;;;;;7.30;4.45;;;;;;;;;;4997680;28;20089;-83
2023/08/17 03:28:42;;;;;;;6.50;4.60;;;;;;;;;;4980791;28;20042;-85
2023/08/17 03:31:11;;;;;;;10.68;4.03;;;;;;;;;;4996961;28;20041;-85
2023/08/17 03:33:37;;;;;;;5.65;4.20;;;;;;;;;;4996636;28;20056;-83
2023/08/17 03:36:03;;;;;;;11.45;4.43;;;;;;;;;;5013047;28;20052;-85
2023/08/17 03:38:29;;;;;;;6.60;4.53;;;;;;;;;;4996675;28;20046;-85
2023/08/17 03:40:56;;;;;;;6.28;4.35;;;;;;;;;;4999279;28;20054;-84
2023/08/17 03:43:22;;;;;;;5.38;4.00;;;;;;;;;;4999888;28;20132;-89
2023/08/17 03:45:48;;;;;;;7.22;4.53;;;;;;;;;;4983897;28;20045;-88
2023/08/17 03:48:14;;;;;;;7.80;4.40;;;;;;;;;;5016149;28;20053;-85
2023/08/17 03:50:40;;;;;;;6.95;4.97;;;;;;;;;;4984126;28;20046;-85
2023/08/17 03:53:06;;;;;;;8.02;4.22;;;;;;;;;;4983732;28;20048;-85
2023/08/17 03:55:32;;;;;;;9.98;4.50;;;;;;;;;;5015369;28;20243;-84
2023/08/17 03:57:58;;;;;;;10.43;4.05;;;;;;;;;;4982998;28;20050;-83
2023/08/17 04:00:24;;;;;;;8.40;4.82;;;;;;;;;;4999127;28;20044;-84
2023/08/17 04:02:50;;;;;;;7.10;3.95;;;;;;;;;;4999012;28;20049;-86
2023/08/17 04:05:17;;;;;;;7.45;4.13;;;;;;;;;;4999077;28;20124;-86
2023/08/17 04:07:43;;;;;;;8.43;4.07;;;;;;;;;;4983022;28;20156;-85
2023/08/17 04:10:09;;;;;;;7.15;4.28;;;;;;;;;;4998656;28;20045;-83
2023/08/17 04:12:35;;;;;;;5.97;3.83;;;;;;;;;;5015283;28;20045;-88
2023/08/17 04:15:01;;;;;;;4.90;4.07;;;;;;;;;;5015475;28;20152;-84
2023/08/17 04:17:27;;;;;;;3.90;3.50;;;;;;;;;;5015424;28;20046;-83
2023/08/17 04:19:53;;;;;;;4.32;3.90;;;;;;;;;;4998756;28;20042;-88
2023/08/17 04:22:19;;;;;;;7.43;4.50;;;;;;;;;;4998387;28;20517;-87
2023/08/17 04:24:45;;;;;;;6.97;4.07;;;;;;;;;;4998967;28;20510;-89
2023/08/17 04:27:13;;;;;;;6.07;3.38;;;;;;;;;;5015063;28;20056;-86
2023/08/17 04:29:39;;;;;;;6.00;3.58;;;;;;;;;;4982969;28;20139;-88
2023/08/17 04:32:05;;;;;;;7.50;3.45;;;;;;;;;;5033873;28;20044;-87
2023/08/17 04:34:31;;;;;;;5.25;3.55;;;;;;;;;;5033232;28;20045;-86
2023/08/17 04:36:57;;;;;;;5.95;3.90;;;;;;;;;;5016051;28;20414;-86
2023/08/17 04:39:23;;;;;;;8.18;4.13;;;;;;;;;;4999269;28;20052;-88
2023/08/17 04:41:49;;;;;;;7.90;3.70;;;;;;;;;;4998754;28;20059;-83
2023/08/17 04:44:16;;;;;;;5.68;4.47;;;;;;;;;;4998538;28;20049;-85
2023/08/17 04:46:42;;;;;;;3.80;3.38;;;;;;;;;;4998608;28;20494;-83
2023/08/17 04:49:08;;;;;;;5.50;4.85;;;;;;;;;;4982382;28;20088;-83
2023/08/17 04:51:34;;;;;;;8.15;3.95;;;;;;;;;;4982271;28;20042;-86
2023/08/17 04:54:00;;;;;;;7.15;4.00;;;;;;;;;;5014589;28;20052;-83
2023/08/17 04:56:27;;;;;;;5.50;3.47;;;;;;;;;;4998272;28;20402;-83
2023/08/17 04:58:53;;;;;;;4.60;3.20;;;;;;;;;;4998757;28;20452;-82
2023/08/17 05:01:19;;;;;;;3.83;3.15;;;;;;;;;;5014705;28;20045;-83
2023/08/17 05:03:46;;;;;;;5.25;3.15;;;;;;;;;;5014006;28;20098;-88
2023/08/17 05:06:13;;;;;;;4.32;3.22;;;;;;;;;;5014549;28;20042;-84
2023/08/17 05:08:39;;;;;;;5.47;3.17;;;;;;;;;;4981958;28;20049;-83
2023/08/17 05:11:05;;;;;;;6.97;3.00;;;;;;;;;;5013934;28;20494;-85
2023/08/17 05:13:31;;;;;;;3.67;2.78;;;;;;;;;;4998382;28;20068;-85
2023/08/17 05:15:57;;;;;;;4.53;2.60;;;;;;;;;;4998297;28;20042;-84
2023/08/17 05:18:23;;;;;;;2.95;2.45;;;;;;;;;;4997893;28;20108;-86
2023/08/17 05:20:49;;;;;;;4.03;2.53;;;;;;;;;;4981537;28;20614;-83
2023/08/17 05:23:15;;;;;;;3.92;2.70;;;;;;;;;;5014227;28;20052;-83
2023/08/17 05:25:41;;;;;;;4.03;2.42;;;;;;;;;;5013961;28;20124;-84
2023/08/17 05:28:07;;;;;;;3.17;2.15;;;;;;;;;;5014075;28;20045;-83
2023/08/17 05:30:33;;;;;;;5.32;3.33;;;;;;;;;;4997643;28;20053;-84
2023/08/17 05:32:59;;;;;;;3.65;2.63;;;;;;;;;;5014119;28;20055;-85
2023/08/17 05:35:26;;;;;;;4.15;2.17;;;;;;;;;;4997684;28;20048;-87
2023/08/17 05:37:52;;;;;;;5.70;3.03;;;;;;;;;;4997697;28;20253;-83
2023/08/17 05:40:18;;;;;;;3.83;2.22;;;;;;;;;;5013998;28;20042;-85
2023/08/17 05:42:44;;;;;;;3.30;2.38;;;;;;;;;;4997406;28;20062;-86
2023/08/17 05:45:11;;;;;;;3.25;2.55;;;;;;;;;;4997478;28;20056;-83
2023/08/17 05:47:37;;;;;;;9.23;2.75;;;;;;;;;;5014027;28;20463;-87
2023/08/17 05:50:03;;;;;;;9.00;2.75;;;;;;;;;;4981689;28;20045;-86
2023/08/17 05:52:29;;;;;;;3.30;2.20;;;;;;;;;;5013850;28;20046;-85
2023/08/17 05:54:55;;;;;;;3.30;2.33;;;;;;;;;;4997683;28;20137;-85
2023/08/17 05:57:21;;;;;;;3.30;2.25;;;;;;;;;;5013873;28;20045;-86
2023/08/17 05:59:47;;;;;;;4.10;2.38;;;;;;;;;;4981375;28;20041;-83
2023/08/17 06:02:13;;;;;;;3.97;2.30;;;;;;;;;;4997691;28;20071;-85
2023/08/17 06:04:39;;;;;;;2.90;2.10;;;;;;;;;;4997267;28;20049;-83
2023/08/17 06:07:06;;;;;;;6.80;2.30;;;;;;;;;;5013786;28;20198;-83
2023/08/17 06:09:32;;;;;;;3.70;2.47;;;;;;;;;;4997433;28;20050;-83
2023/08/17 06:11:58;;;;;;;5.72;2.50;;;;;;;;;;5014027;28;20048;-85
2023/08/17 06:14:24;;;;;;;5.05;2.28;;;;;;;;;;4998258;28;20049;-85
2023/08/17 06:16:50;;;;;;;11.55;2.88;;;;;;;;;;4997881;28;20049;-83
2023/08/17 06:19:16;;;;;;;4.70;2.33;;;;;;;;;;4999478;28;20046;-84
2023/08/17 06:21:42;;;;;;;2.95;1.90;;;;;;;;;;5017092;28;20099;-83
2023/08/17 06:24:08;;;;;;;3.13;2.33;;;;;;;;;;5000804;28;20049;-85
2023/08/17 06:26:34;;;;;;;4.53;2.75;;;;;;;;;;5000855;28;20041;-83
2023/08/17 06:29:00;;;;;;;4.45;2.33;;;;;;;;;;5001065;28;20438;-83
2023/08/17 06:31:27;;;;;;;9.70;2.72;;;;;;;;;;5000999;28;20128;-83
2023/08/17 06:33:54;;;;;;;5.93;3.88;;;16.50;1.00;;;;;;4984203;28;20056;-83
2023/08/17 06:36:20;;;;;;;6.28;2.92;;;;;;;;;;5000670;28;20136;-84
2023/08/17 06:38:47;;;;;;;6.60;2.58;;;;;;;;;;5000709;28;20110;-85
2023/08/17 06:41:13;;;;;;;3.92;2.78;;;;;;;;;;5001372;28;20100;-84
2023/08/17 06:43:39;;;;;;;8.88;3.00;;;;;;;;;;5017037;28;20069;-84
2023/08/17 06:46:05;;;;;;;7.05;2.97;;;;;;;;;;5000471;28;20048;-85
2023/08/17 06:48:32;;;;;;;3.38;2.45;;;;;;;;;;5017532;28;20145;-83
2023/08/17 06:50:58;;;;;;;5.95;2.58;;;;;;;;;;5017341;28;20054;-84
2023/08/17 06:53:24;;;;;;;5.53;2.55;;;;;;;;;;5016940;28;20056;-84
2023/08/17 06:55:50;;;;;;;4.13;1.98;;;;;;;;;;5017196;28;20037;-86
2023/08/17 06:58:16;;;;;;;7.32;2.20;;;;;;;;;;5000772;28;20099;-83
2023/08/17 07:00:43;;;;;;;7.93;2.70;;;;;;;;;;5000800;28;20414;-84
2023/08/17 07:03:09;;;;;;;8.75;3.38;;;;;;;;;;5000283;28;20049;-84
2023/08/17 07:05:36;;;;;;;3.80;2.05;;;;;;;;;;5000387;28;20077;-85
2023/08/17 07:08:02;;;;;;;3.60;2.33;;;;;;;;;;4984761;28;20041;-84
2023/08/17 07:10:28;;;;;;;6.88;1.92;;;;;;;;;;5000272;28;20046;-83
2023/08/17 07:12:54;;;;;;;5.88;2.08;;;;;;;;;;4984443;28;20402;-86
2023/08/17 07:15:20;;;;;;;3.38;1.90;;;;;;;;;;5000410;28;20499;-84
2023/08/17 07:17:46;;;;;;;4.78;1.92;;;;;;;;;;5016723;28;20056;-87
2023/08/17 07:20:12;;;;;;;2.80;1.85;;;;;;;;;;5000591;28;20053;-84
2023/08/17 07:22:38;;;;;;;2.35;2.05;;;;;;;;;;4999690;28;20037;-85
2023/08/17 07:25:04;;;;;;;5.03;1.50;;;;;;;;;;4999649;28;20056;-84
2023/08/17 07:27:30;;;;;;;2.75;1.58;;;;;;;;;;4999850;28;20452;-85
2023/08/17 07:29:57;;;;;;;4.43;1.95;;;;;;;;;;4999137;28;20045;-87
2023/08/17 07:32:24;;;;;;;3.63;1.80;;;;;;;;;;5015366;28;20052;-83
2023/08/17 07:34:50;;;;;;;3.38;1.52;;;;;;;;;;4999377;28;20069;-84
2023/08/17 07:37:17;;;;;;;8.00;2.67;;;;;;;;;;5016190;28;20051;-84
2023/08/17 07:39:43;;;;;;;4.82;1.48;;;;;;;;;;4983299;28;20049;-83
2023/08/17 07:42:09;;;;;;;4.78;1.95;;;;;;;;;;5015278;28;20140;-84
2023/08/17 07:44:35;;;;;;;5.32;1.60;;;;;;;;;;4999291;28;20132;-83
2023/08/17 07:47:01;;;;;;;4.03;1.50;;;;;;;;;;4983022;28;20049;-85
2023/08/17 07:49:28;;;;;;;3.65;1.17;;;18.40;1.00;;;;;;4982910;28;20049;-85
2023/08/17 07:51:54;;;;;;;3.90;1.30;;;18.60;1.00;;;;;;4999264;28;20045;-84
2023/08/17 07:54:20;;;;;;;3.05;1.92;;;;;;;;;;5015705;28;20057;-85
2023/08/17 07:56:46;;;;;;;4.10;1.35;;;;;;;;;;4999297;28;20037;-85
2023/08/17 07:59:12;;;;;;;1.65;1.50;;;;;;;;;;4982932;28;20095;-84
2023/08/17 08:01:39;;;;;;;1.88;1.40;;;;;;;;;;4982872;28;20125;-84
2023/08/17 08:04:06;;;;;;;4.20;1.38;;;;;;;;;;4982744;28;20049;-85
2023/08/17 08:06:32;;;;;;;6.07;1.73;;;;;;;;;;4999404;28;20158;-85
2023/08/17 08:08:59;;;;;;;3.70;2.03;;;;;;;;;;5015216;28;20042;-86
2023/08/17 08:11:27;;;;;;;4.25;1.17;;;18.30;1.00;;;;;;4998614;28;20378;-86
2023/08/17 08:13:53;;;;;;;5.35;1.52;;;;;;;;;;4999185;28;20050;-86
2023/08/17 08:16:19;;;;;;;3.05;1.50;;;;;;;;;;5014759;28;20140;-86
2023/08/17 08:18:45;;;;;;;7.25;1.50;;;;;;;;;;5015064;28;20038;-86
2023/08/17 08:21:11;;;;;;;4.82;1.77;;;;;;;;;;4998680;28;20056;-86
2023/08/17 08:23:37;;;;;;;3.25;1.42;;;;;;;;;;4999090;28;20045;-84
2023/08/17 08:26:03;;;;;;;3.97;1.45;;;;;;;;;;4999568;28;20045;-84
2023/08/17 08:28:29;;;;;;;2.58;1.02;;;;;;;;;;4999335;28;20045;-84
2023/08/17 08:30:56;;;;;;;2.15;1.33;;;;;;;;;;4999250;28;20045;-85
2023/08/17 08:33:22;;;;;;;3.47;1.80;;;;;;;;;;5015539;28;20449;-84
2023/08/17 08:35:48;;;;;;;4.88;1.80;;;;;;;;;;4982779;28;20540;-85
2023/08/17 08:38:15;;;;;;;3.58;1.80;;;;;;;;;;5015138;28;20087;-85
2023/08/17 08:40:41;;;;;;;5.55;1.80;;;;;;;;;;4998955;28;20038;-84
2023/08/17 08:43:09;;;;;;;5.78;2.00;;;;;;;;;;4998229;28;20084;-86
2023/08/17 08:45:37;;;;;;;4.53;1.73;;;18.40;1.00;;;;;;4999025;28;20056;-86
2023/08/17 08:48:03;;;;;;;3.22;1.55;;;;;;;;;;4998798;28;20045;-85
2023/08/17 08:50:31;;;;;;;4.28;2.00;;;18.70;1.00;;;;;;4982731;28;20502;-85
2023/08/17 08:53:03;;;;;;;5.47;1.30;;;18.40;1.00;;;;;;4999172;28;20181;-86
2023/08/17 08:55:38;;;;;;;2.63;1.52;;;18.90;1.00;;;;;;5015346;28;20087;-86
2023/08/17 08:58:07;;;;;;;1.85;1.10;;;18.70;1.00;;;;;;4998674;28;20128;-85
2023/08/17 09:00:34;;;;;;;3.80;1.50;;;;;;;;;;4999095;28;20045;-86
2023/08/17 09:03:02;;;;;;;1.52;1.27;;;18.70;1.00;;;;;;5015535;28;20049;-84
2023/08/17 09:05:29;;;;;;;3.70;1.65;;;;;;;;;;4999461;28;20045;-86
2023/08/17 09:07:57;;;;;;;1.80;1.42;;;18.90;1.00;;;;;;5015257;28;20045;-85
2023/08/17 09:10:23;;;;;;;5.93;1.40;;;;;;;;;;4998386;28;20049;-85
2023/08/17 09:12:50;;;;;;;4.90;1.40;;;;;;;;;;4998719;28;20049;-85
2023/08/17 09:15:16;;;;;;;3.38;1.60;;;;;;;;;;4999044;28;20083;-86
2023/08/17 09:17:43;;;;;;;4.65;1.70;;;18.90;1.00;;;;;;5015859;28;20041;-85
2023/08/17 09:20:09;;;;;;;3.78;2.05;;;19.20;1.00;;;;;;4982534;28;20042;-86
2023/08/17 09:22:43;;;;;;;9.02;1.50;;;18.80;1.00;;;;;;4983187;28;20041;-84
2023/08/17 09:25:10;;;;;;;4.38;1.45;;;19.10;1.00;;;;;;4982224;28;20041;-86
2023/08/17 09:27:37;;;;;;;6.40;1.45;;;;;;;;;;5015232;28;20045;-84
2023/08/17 09:30:08;;;;;;;3.13;1.98;;;19.00;1.00;;;;;;4999218;28;20128;-84
2023/08/17 09:32:34;;;;;;;1.40;1.27;;;;;;;;;;5015360;28;20437;-83
2023/08/17 09:35:05;;;;;;;8.40;1.60;;;19.00;1.00;;;;;;5014288;28;20505;-85
2023/08/17 09:37:31;;;;;;;5.03;2.47;;;;;;;;;;5014591;28;20045;-85
2023/08/17 09:39:58;;;;;;;5.28;1.40;;;;;;;;;;4998653;28;20046;-84
2023/08/17 09:42:25;;;;;;;6.45;2.83;;;;;;;;;;5015139;28;20054;-85
2023/08/17 09:44:52;;;;;;;2.63;1.30;;;19.40;1.00;;;;;;4984219;28;20055;-84
2023/08/17 09:47:21;;;;;;;4.60;1.85;;;;;;;;;;4999849;28;20506;-85
2023/08/17 09:49:55;;;;;;;2.28;1.58;;;19.40;1.00;;;;;;4984473;28;20486;-85
2023/08/17 09:52:26;;;;;;;3.08;1.35;;;19.20;1.00;;;;;;4999932;28;20135;-86
2023/08/17 09:54:54;;;;;;;2.88;1.50;;;;;;;;;;5037051;28;20061;-85
2023/08/17 09:57:21;;;;;;;4.20;1.63;;;;;;;;;;4988339;28;20042;-84
2023/08/17 09:59:47;;;;;;;3.30;1.25;;;;;;;;;;5037759;28;20050;-86
2023/08/17 10:02:23;;;;;;;6.75;1.95;;;19.60;1.00;;;;;;5003546;28;20521;-84
2023/08/17 10:04:53;;;;;;;5.85;1.83;;;20.00;1.00;;;;;;5003992;28;20051;-84
2023/08/17 10:07:21;;;;;;;4.00;1.70;;;20.00;1.00;;;;;;5019932;28;20088;-85
2023/08/17 10:10:10;;;;;;;5.65;1.80;;;20.10;1.00;;;;;;5003830;28;20056;-85
2023/08/17 10:12:50;;;;;;;5.72;1.35;;;20.30;1.00;;;;;;5037643;28;20485;-85
2023/08/17 10:15:21;;;;;;;5.07;1.70;;;20.20;1.00;;;;;;5019441;28;20085;-85
2023/08/17 10:17:57;;;;;;;3.20;1.40;;;20.30;1.00;;;;;;5003354;28;20046;-85
2023/08/17 10:20:26;;;;;;;6.70;1.70;;;20.40;1.00;;;;;;5019061;28;20049;-85
2023/08/17 10:23:03;;;;;;;6.65;2.47;;;20.20;1.00;;;;;;5019692;28;20041;-85
2023/08/17 10:25:29;;;;;;;3.65;2.00;;;;;;;;;;5002790;28;20045;-86
2023/08/17 10:27:55;;;;;;;4.40;2.03;;;;;;;;;;5003103;28;20104;-85
2023/08/17 10:30:22;;;;;;;10.27;2.22;;;;;;;;;;5036909;28;20502;-84
2023/08/17 10:32:48;;;;;;;6.07;1.92;;;;;;;;;;5037559;28;20060;-86
2023/08/17 10:35:15;;;;;;;4.93;1.55;;;20.50;1.00;;;;;;5002148;28;20038;-85
2023/08/17 10:37:41;;;;;;;2.10;1.27;;;;;;;;;;5002322;28;20104;-86
2023/08/17 10:40:08;;;;;;;6.68;1.92;;;;;;;;;;5019064;28;20041;-87
2023/08/17 10:42:36;;;;;;;4.80;1.95;;;20.40;1.00;;;;;;5001321;28;20053;-85
2023/08/17 10:45:21;;;;;;;4.55;1.70;;;20.40;1.00;;;;;;5037168;28;20045;-86
2023/08/17 10:47:47;;;;;;;4.65;2.10;;;;;;;;;;5036960;28;20050;-85
2023/08/17 10:50:24;;;;;;;9.27;1.88;;;20.00;1.00;;;;;;5018899;28;20049;-85
2023/08/17 10:52:50;;;;;;;10.63;2.05;;;;;;;;;;5000555;28;20057;-84
2023/08/17 10:55:18;;;;;;;4.78;1.70;;;;;;;;;;5017811;28;20053;-84
2023/08/17 10:57:45;;;;;;;4.38;1.67;;;;;;;;;;5035445;28;20056;-86
2023/08/17 11:00:20;;;;;;;7.63;1.70;;;20.40;1.00;;;;;;5001297;28;20050;-83
2023/08/17 11:03:03;;;;;;;6.03;2.00;;;20.20;1.00;;;;;;5017621;28;20041;-84
2023/08/17 11:05:35;;;;;;;4.93;1.80;;;20.20;1.00;;;;;;5017275;28;20044;-84
2023/08/17 11:08:02;;;;;;;4.20;2.38;;;;;;;;;;5017603;28;20052;-84
2023/08/17 11:10:29;;;;;;;5.35;2.17;;;20.20;1.00;;;;;;5017801;28;20065;-84
2023/08/17 11:13:03;;;;;;;4.05;1.95;;;;;;;;;;5017422;28;20050;-86
2023/08/17 11:15:37;;;;;;;2.88;1.65;;;20.50;1.00;;;;;;5034935;28;20049;-85
2023/08/17 11:18:07;;;;;;;4.07;1.50;;;20.30;1.00;;;;;;5017164;28;20140;-85
2023/08/17 11:20:38;;;;;;;19.98;2.67;;;20.50;1.00;;;;;;5016951;28;20041;-86
2023/08/17 11:23:04;;;;;;;3.88;1.83;;;20.40;1.00;;;;;;5016903;28;20588;-84
2023/08/17 11:25:34;;;;;;;13.85;2.78;;;20.40;1.00;;;;;;4984523;28;20187;-85
2023/08/17 11:28:05;;;;;;;3.10;1.33;;;20.40;1.00;;;;;;5016684;28;20183;-85
2023/08/17 11:30:34;;;;;;;9.15;2.08;;;;;;;;;;5017040;28;20113;-84
2023/08/17 11:33:00;;;;;;;7.50;1.80;;;20.60;1.00;;;;;;5000702;28;20044;-85
2023/08/17 11:35:26;;;;;;;3.65;2.05;;;;;;;;;;5034600;28;20080;-84
2023/08/17 11:37:52;;;;;;;4.78;1.90;;;;;;;;;;5000450;28;20076;-83
2023/08/17 11:40:18;;;;;;;3.33;1.75;;;20.40;1.00;;;;;;5016531;28;20518;-84
2023/08/17 11:42:45;;;;;;;8.43;2.17;;;20.50;1.00;;;;;;5015779;28;20552;-84
2023/08/17 11:45:13;;;;;;;2.80;1.67;;;20.60;1.00;;;;;;5034120;28;20067;-85
2023/08/17 11:47:40;;;;;;;1.50;1.38;;;20.50;1.00;;;;;;5000021;28;20061;-85
2023/08/17 11:50:08;;;;;;;14.68;2.47;;;20.50;1.00;;;;;;5015854;28;20052;-85
2023/08/17 11:52:36;;;;;;;6.22;2.10;;;;;;;;;;5016450;28;20045;-84
2023/08/17 11:55:09;;;;;;;7.63;2.17;;;20.60;1.00;;;;;;5033531;28;20041;-83
2023/08/17 11:57:40;;;;;;;4.22;1.90;;;20.50;1.00;;;;;;4983553;28;20092;-84
2023/08/17 12:00:09;;;;;;;7.00;2.15;;;20.60;1.00;;;;;;5033497;28;20045;-84
2023/08/17 12:02:41;;;;;;;5.38;2.13;;;;;;;;;;5015895;28;20129;-86
2023/08/17 12:05:09;;;;;;;4.45;2.38;;;;;;;;;;5015634;28;20128;-85
2023/08/17 12:07:35;;;;;;;9.10;2.10;;;;;;;;;;4999939;28;20552;-86
2023/08/17 12:10:05;;;;;;;7.75;2.75;;;20.50;1.00;;;;;;4999377;28;20107;-86
2023/08/17 12:12:31;;;;;;;4.40;2.17;;;;;;;;;;4999600;28;20041;-86
2023/08/17 12:14:58;;;;;;;5.45;2.17;;;18.10;1.00;;;;;;4983922;28;20041;-85
2023/08/17 12:17:25;;;;;;;3.72;2.10;;;;;;;;;;5032251;28;20529;-85
2023/08/17 12:19:54;;;;;;;4.38;2.30;;;20.30;1.00;;;;;;5015366;28;20041;-85
2023/08/17 12:22:24;;;;;;;4.13;2.10;;;20.40;1.00;;;;;;5015579;28;20049;-86
2023/08/17 12:24:50;;;;;;;10.48;2.20;;;;;;;;;;5033467;28;20510;-86
2023/08/17 12:27:18;;;;;;;10.05;2.05;;;;;;;;;;5033591;28;20042;-85
2023/08/17 12:29:51;;;;;;;5.30;2.78;;;20.20;1.00;;;;;;4999728;28;20049;-87
2023/08/17 12:32:19;;;;;;;7.30;2.70;;;20.30;1.00;;;;;;4999134;28;20095;-87
2023/08/17 12:34:45;;;;;;;7.10;2.50;;;;;;;;;;4982803;28;20046;-88
2023/08/17 12:37:12;;;;;;;8.38;2.63;;;;;;;;;;4997898;28;20077;-86
2023/08/17 12:39:41;;;;;;;4.88;2.00;;;20.50;1.00;;;;;;4998169;28;20618;-87
2023/08/17 12:42:09;;;;;;;12.75;2.80;;;;;;;;;;4959589;28;20054;-85
2023/08/17 12:44:35;;;;;;;3.42;2.53;;;;;;;;;;4994397;28;20056;-87
2023/08/17 12:47:01;;;;;;;3.42;2.53;;;;;;;;;;4979552;28;20077;-86
2023/08/17 12:49:27;;;;;;;7.03;2.40;;;;;;;;;;4995437;28;20049;-86
2023/08/17 12:51:53;;;;;;;10.32;2.90;;;;;;;;;;4994721;28;20453;-86
2023/08/17 12:54:19;;;;;;;2.13;1.70;;;20.70;1.00;;;;;;4979562;28;20099;-87
2023/08/17 12:56:45;;;;;;;6.40;2.38;;;;;;;;;;5011113;28;20501;-86
2023/08/17 12:59:11;;;;;;;4.07;2.63;;;;;;;;;;4995954;28;20104;-86
2023/08/17 13:01:37;;;;;;;5.15;2.88;;;;;;;;;;4959293;28;20042;-85
2023/08/17 13:04:03;;;;;;;5.28;2.20;;;20.70;1.00;;;;;;4995083;28;20114;-85
2023/08/17 13:06:29;;;;;;;5.80;2.65;;;20.50;1.00;;;;;;4979609;28;20045;-87
2023/08/17 13:08:55;;;;;;;13.98;3.13;;;;;;;;;;4995609;28;20046;-86
2023/08/17 13:11:21;;;;;;;5.57;2.55;;;;;;;;;;4979071;28;20049;-86
2023/08/17 13:13:47;;;;;;;6.80;2.35;;;;;;;;;;4979104;28;20050;-85
2023/08/17 13:16:13;;;;;;;3.20;2.55;;;;;;;;;;4995084;28;20053;-85
2023/08/17 13:18:39;;;;;;;4.53;2.60;;;;;;;;;;5013045;28;20072;-86
2023/08/17 13:21:05;;;;;;;4.88;2.30;;;;;;;;;;4995112;28;20052;-88
2023/08/17 13:23:32;;;;;;;7.20;2.33;;;;;;;;;;5012936;28;20050;-87
2023/08/17 13:25:58;;;;;;;5.82;2.33;;;;;;;;;;4979653;28;20050;-87
2023/08/17 13:28:24;;;;;;;4.30;2.00;;;;;;;;;;4997379;28;20128;-87
2023/08/17 13:30:50;;;;;;;9.00;2.67;;;;;;;;;;5016750;28;20080;-86
2023/08/17 13:33:17;;;;;;;9.70;2.70;;;20.50;1.00;;;;;;4999204;28;20046;-85
2023/08/17 13:35:43;;;;;;;4.90;2.17;;;;;;;;;;4966698;28;20050;-86
2023/08/17 13:38:09;;;;;;;4.40;2.80;;;;;;;;;;4982400;28;20065;-87
2023/08/17 13:40:38;;;;;;;5.40;2.50;;;20.50;1.00;;;;;;5016521;28;20124;-87
2023/08/17 13:43:08;;;;;;;4.43;2.47;;;;;;;;;;5012300;28;20510;-86
2023/08/17 13:45:34;;;;;;;4.13;2.60;;;;;;;;;;5036315;28;20056;-87
2023/08/17 13:48:00;;;;;;;8.73;3.30;;;;;;;;;;5002276;28;20119;-86
2023/08/17 13:50:26;;;;;;;5.18;2.50;;;20.40;1.00;;;;;;5018644;28;20045;-85
2023/08/17 13:52:52;;;;;;;4.75;2.55;;;;;;;;;;5001964;28;20045;-86
2023/08/17 13:55:19;;;;;;;3.40;2.42;;;;;;;;;;4986030;28;20045;-86
2023/08/17 13:57:45;;;;;;;8.10;2.78;;;;;;;;;;5001929;28;20053;-85
2023/08/17 14:00:11;;;;;;;5.90;2.80;;;20.30;1.00;;;;;;5000693;28;20056;-86
2023/08/17 14:02:38;;;;;;;4.45;2.70;;;;;;;;;;4985294;28;20056;-84
2023/08/17 14:05:04;;;;;;;6.32;2.88;;;20.00;1.00;;;;;;5017857;28;20148;-84
2023/08/17 14:07:30;;;;;;;6.05;2.20;;;;;;;;;;5002216;28;20041;-86
2023/08/17 14:09:56;;;;;;;7.30;2.50;;;;;;;;;;5017689;28;20099;-85
2023/08/17 14:12:22;;;;;;;7.53;2.75;;;;;;;;;;4985550;28;20048;-85